createdAt,value
2022-12-12T00:02:04.492Z,-0.51
2022-12-12T00:04:36.109Z,-0.56
2022-12-12T00:07:04.776Z,-0.56
2022-12-12T00:09:33.385Z,-0.61
2022-12-12T00:12:05.680Z,-0.63
2022-12-12T00:14:35.606Z,-0.61
2022-12-12T00:17:05.430Z,-0.67
2022-12-12T00:19:38.198Z,-0.65
2022-12-12T00:22:21.326Z,-0.62
2022-12-12T00:24:53.401Z,-0.63
2022-12-12T00:27:23.457Z,-0.65
2022-12-12T00:29:54.558Z,-0.70
2022-12-12T00:32:36.058Z,-0.72
2022-12-12T00:35:05.326Z,-0.79
2022-12-12T00:37:34.018Z,-0.73
2022-12-12T00:40:03.807Z,-0.75
2022-12-12T00:42:44.817Z,-0.81
2022-12-12T00:45:16.948Z,-0.79
2022-12-12T00:47:45.868Z,-0.79
2022-12-12T00:50:15.227Z,-0.80
2022-12-12T00:52:52.034Z,-0.75
2022-12-12T00:55:21.165Z,-0.72
2022-12-12T00:57:52.590Z,-0.73
2022-12-12T01:00:22.857Z,-0.78
2022-12-12T01:02:52.995Z,-0.79
2022-12-12T01:05:22.407Z,-0.86
2022-12-12T01:07:51.250Z,-0.87
2022-12-12T01:10:26.287Z,-0.94
2022-12-12T01:12:56.447Z,-0.93
2022-12-12T01:15:26.788Z,-0.89
2022-12-12T01:17:55.847Z,-0.92
2022-12-12T01:20:28.827Z,-0.94
2022-12-12T01:22:58.378Z,-0.97
2022-12-12T01:25:27.463Z,-0.97
2022-12-12T01:28:00.537Z,-0.94
2022-12-12T01:30:30.169Z,-0.93
2022-12-12T01:32:58.798Z,-0.96
2022-12-12T01:35:27.626Z,-0.95
2022-12-12T01:37:56.324Z,-0.95
2022-12-12T01:40:27.326Z,-0.94
2022-12-12T01:43:07.768Z,-1.03
2022-12-12T01:46:17.574Z,-1.03
2022-12-12T01:51:57.617Z,-1.00
2022-12-12T01:54:32.766Z,-1.04
2022-12-12T01:57:13.443Z,-1.02
2022-12-12T01:59:45.206Z,-1.03
2022-12-12T02:02:20.271Z,-1.01
2022-12-12T02:04:56.350Z,-1.09
2022-12-12T02:07:25.540Z,-1.04
2022-12-12T02:09:55.139Z,-1.12
2022-12-12T02:12:23.967Z,-1.08
2022-12-12T02:14:58.642Z,-1.12
2022-12-12T02:17:50.597Z,-1.19
2022-12-12T02:21:04.559Z,-1.18
2022-12-12T02:24:11.346Z,-1.14
2022-12-12T02:27:24.558Z,-1.14
2022-12-12T02:30:21.728Z,-1.21
2022-12-12T02:33:20.308Z,-1.19
2022-12-12T02:36:04.689Z,-1.22
2022-12-12T02:38:41.977Z,-1.27
2022-12-12T02:41:26.908Z,-1.23
2022-12-12T02:44:09.606Z,-1.18
2022-12-12T02:46:48.540Z,-1.22
2022-12-12T02:49:28.400Z,-1.20
2022-12-12T02:51:59.245Z,-1.19
2022-12-12T02:54:28.959Z,-1.18
2022-12-12T02:57:03.552Z,-1.16
2022-12-12T02:59:36.084Z,-1.13
2022-12-12T03:03:18.074Z,-1.12
2022-12-12T03:06:21.839Z,-1.09
2022-12-12T03:09:06.066Z,-1.10
2022-12-12T03:11:49.099Z,-1.06
2022-12-12T03:14:27.126Z,-1.19
2022-12-12T03:17:07.103Z,-1.22
2022-12-12T03:19:44.708Z,-1.22
2022-12-12T03:22:25.887Z,-1.28
2022-12-12T03:25:05.966Z,-1.27
2022-12-12T03:27:47.027Z,-1.27
2022-12-12T03:30:19.528Z,-1.25
2022-12-12T03:33:00.452Z,-1.24
2022-12-12T03:35:35.335Z,-1.25
2022-12-12T03:38:11.718Z,-1.25
2022-12-12T03:40:48.767Z,-1.25
2022-12-12T03:43:26.794Z,-1.24
2022-12-12T03:46:01.605Z,-1.22
2022-12-12T03:48:36.248Z,-1.19
2022-12-12T03:51:07.517Z,-1.20
2022-12-12T03:53:45.216Z,-1.23
2022-12-12T03:56:20.678Z,-1.20
2022-12-12T03:58:54.298Z,-1.17
2022-12-12T04:01:30.299Z,-1.23
2022-12-12T04:04:14.753Z,-1.35
2022-12-12T04:06:49.987Z,-1.40
2022-12-12T04:09:38.948Z,-1.39
2022-12-12T04:12:32.828Z,-1.41
2022-12-12T04:15:55.826Z,-1.44
2022-12-12T04:18:45.907Z,-1.40
2022-12-12T04:21:49.768Z,-1.39
2022-12-12T04:24:36.949Z,-1.34
2022-12-12T04:27:21.042Z,-1.43
2022-12-12T04:29:55.269Z,-1.49
2022-12-12T04:32:30.396Z,-1.48
2022-12-12T04:35:07.944Z,-1.52
2022-12-12T04:37:40.757Z,-1.55
2022-12-12T04:40:29.587Z,-1.47
2022-12-12T04:43:05.596Z,-1.53
2022-12-12T04:45:38.558Z,-1.52
2022-12-12T04:48:12.127Z,-1.50
2022-12-12T04:50:45.518Z,-1.51
2022-12-12T04:53:18.987Z,-1.62
2022-12-12T04:55:58.877Z,-1.68
2022-12-12T04:58:29.547Z,-1.72
2022-12-12T05:01:05.643Z,-1.79
2022-12-12T05:03:43.045Z,-1.78
2022-12-12T05:06:15.927Z,-1.75
2022-12-12T05:08:53.694Z,-1.73
2022-12-12T05:11:25.839Z,-1.68
2022-12-12T05:13:56.145Z,-1.70
2022-12-12T05:16:28.396Z,-1.66
2022-12-12T05:18:57.296Z,-1.67
2022-12-12T05:21:26.346Z,-1.75
2022-12-12T05:23:55.740Z,-1.82
2022-12-12T05:26:36.019Z,-1.89
2022-12-12T05:29:07.673Z,-1.88
2022-12-12T05:31:37.242Z,-1.85
2022-12-12T05:34:06.197Z,-1.75
2022-12-12T05:36:35.328Z,-1.76
2022-12-12T05:39:06.866Z,-1.73
2022-12-12T05:41:39.196Z,-1.77
2022-12-12T05:44:08.292Z,-1.76
2022-12-12T05:46:36.845Z,-1.72
2022-12-12T05:49:06.071Z,-1.80
2022-12-12T05:51:35.826Z,-1.75
2022-12-12T05:54:04.759Z,-1.68
2022-12-12T05:56:41.871Z,-1.63
2022-12-12T05:59:11.610Z,-1.68
2022-12-12T06:01:43.116Z,-1.70
2022-12-12T06:04:11.802Z,-1.74
2022-12-12T06:06:42.708Z,-1.70
2022-12-12T06:09:11.435Z,-1.67
2022-12-12T06:11:42.584Z,-1.66
2022-12-12T06:14:12.620Z,-1.70
2022-12-12T06:16:42.451Z,-1.67
2022-12-12T06:19:12.973Z,-1.64
2022-12-12T06:21:41.807Z,-1.62
2022-12-12T06:24:11.583Z,-1.63
2022-12-12T06:26:41.502Z,-1.67
2022-12-12T06:29:11.213Z,-1.74
2022-12-12T06:31:40.997Z,-1.65
2022-12-12T06:34:12.341Z,-1.66
2022-12-12T06:36:48.897Z,-1.61
2022-12-12T06:39:19.806Z,-1.59
2022-12-12T06:41:52.126Z,-1.53
2022-12-12T06:44:22.788Z,-1.55
2022-12-12T06:46:52.464Z,-1.64
2022-12-12T06:49:28.502Z,-1.68
2022-12-12T06:51:57.194Z,-1.74
2022-12-12T06:54:28.981Z,-1.73
2022-12-12T06:56:59.062Z,-1.77
2022-12-12T06:59:30.529Z,-1.71
2022-12-12T07:02:01.281Z,-1.70
2022-12-12T07:04:33.017Z,-1.66
2022-12-12T07:07:01.758Z,-1.77
2022-12-12T07:09:30.511Z,-1.88
2022-12-12T07:12:01.964Z,-1.94
2022-12-12T07:14:30.528Z,-1.95
2022-12-12T07:16:59.961Z,-1.95
2022-12-12T07:19:28.870Z,-1.96
2022-12-12T07:21:57.451Z,-2.00
2022-12-12T07:24:26.047Z,-1.95
2022-12-12T07:26:54.919Z,-1.91
2022-12-12T07:29:25.148Z,-1.91
2022-12-12T07:31:53.576Z,-1.96
2022-12-12T07:34:22.238Z,-1.92
2022-12-12T07:36:51.379Z,-1.85
2022-12-12T07:39:21.151Z,-1.91
2022-12-12T07:41:50.290Z,-1.90
2022-12-12T07:44:19.729Z,-1.85
2022-12-12T07:46:49.984Z,-1.83
2022-12-12T07:49:18.570Z,-1.73
2022-12-12T07:51:49.125Z,-1.69
2022-12-12T07:54:22.021Z,-1.64
2022-12-12T07:56:50.734Z,-1.65
2022-12-12T07:59:19.224Z,-1.68
2022-12-12T08:01:48.420Z,-1.69
2022-12-12T08:04:18.952Z,-1.77
2022-12-12T08:06:50.014Z,-1.73
2022-12-12T08:09:21.371Z,-1.70
2022-12-12T08:11:49.898Z,-1.72
2022-12-12T08:14:18.474Z,-1.75
2022-12-12T08:16:47.475Z,-1.73
2022-12-12T08:19:30.703Z,-1.76
2022-12-12T08:22:00.888Z,-1.78
2022-12-12T08:24:30.448Z,-1.80
2022-12-12T08:26:59.013Z,-1.78
2022-12-12T08:29:29.668Z,-1.90
2022-12-12T08:31:58.522Z,-1.95
2022-12-12T08:34:27.937Z,-1.90
2022-12-12T08:36:57.130Z,-2.00
2022-12-12T08:39:28.483Z,-2.09
2022-12-12T08:41:56.928Z,-2.11
2022-12-12T08:44:25.399Z,-2.05
2022-12-12T08:46:54.211Z,-1.94
2022-12-12T08:49:22.964Z,-1.83
2022-12-12T08:51:51.917Z,-1.77
2022-12-12T08:54:20.432Z,-1.77
2022-12-12T08:56:50.460Z,-1.75
2022-12-12T08:59:18.951Z,-1.77
2022-12-12T09:01:47.692Z,-1.83
2022-12-12T09:04:16.397Z,-1.79
2022-12-12T09:06:46.195Z,-1.79
2022-12-12T09:09:15.689Z,-1.81
2022-12-12T09:11:44.002Z,-1.77
2022-12-12T09:14:13.788Z,-1.73
2022-12-12T09:16:44.681Z,-1.65
2022-12-12T09:19:13.534Z,-1.57
2022-12-12T09:21:43.800Z,-1.48
2022-12-12T09:24:14.989Z,-1.50
2022-12-12T09:26:43.988Z,-1.47
2022-12-12T09:29:14.490Z,-1.49
2022-12-12T09:31:42.979Z,-1.43
2022-12-12T09:34:11.538Z,-1.38
2022-12-12T09:36:40.072Z,-1.49
2022-12-12T09:39:11.473Z,-1.47
2022-12-12T09:41:40.810Z,-1.54
2022-12-12T09:44:12.550Z,-1.57
2022-12-12T09:46:47.513Z,-1.46
2022-12-12T09:49:22.959Z,-1.38
2022-12-12T09:51:53.678Z,-1.45
2022-12-12T09:54:29.835Z,-1.48
2022-12-12T09:57:15.911Z,-1.48
2022-12-12T09:59:51.722Z,-1.42
2022-12-12T10:02:48.250Z,-1.31
2022-12-12T10:05:29.361Z,-1.25
2022-12-12T10:08:06.359Z,-1.38
2022-12-12T10:10:38.316Z,-1.36
2022-12-12T10:13:14.931Z,-1.34
2022-12-12T10:15:48.242Z,-1.32
2022-12-12T10:18:22.533Z,-1.30
2022-12-12T10:20:55.909Z,-1.30
2022-12-12T10:23:37.472Z,-1.26
2022-12-12T10:26:10.111Z,-1.24
2022-12-12T10:28:38.732Z,-1.13
2022-12-12T10:31:20.928Z,-1.13
2022-12-12T10:34:05.218Z,-1.09
2022-12-12T10:36:50.812Z,-1.11
2022-12-12T10:39:32.545Z,-1.09
2022-12-12T10:42:08.383Z,-1.18
2022-12-12T10:45:18.299Z,-1.04
2022-12-12T10:47:48.473Z,-0.96
2022-12-12T10:50:29.955Z,-0.98
2022-12-12T10:52:58.867Z,-0.90
2022-12-12T10:55:37.194Z,-0.95
2022-12-12T10:58:08.210Z,-0.88
2022-12-12T11:00:38.828Z,-0.86
2022-12-12T11:03:30.933Z,-0.83
2022-12-12T11:06:08.151Z,-0.82
2022-12-12T11:08:38.739Z,-0.80
2022-12-12T11:11:19.841Z,-0.83
2022-12-12T11:13:53.485Z,-0.84
2022-12-12T11:16:26.433Z,-0.78
2022-12-12T11:19:07.932Z,-0.77
2022-12-12T11:21:40.156Z,-0.70
2022-12-12T11:24:14.670Z,-0.74
2022-12-12T11:26:47.414Z,-0.80
2022-12-12T11:29:42.371Z,-0.82
2022-12-12T11:32:16.316Z,-0.70
2022-12-12T11:34:51.231Z,-0.61
2022-12-12T11:37:25.515Z,-0.57
2022-12-12T11:39:55.699Z,-0.54
2022-12-12T11:42:28.564Z,-0.47
2022-12-12T11:45:03.461Z,-0.42
2022-12-12T11:47:41.353Z,-0.45
2022-12-12T11:50:22.394Z,-0.47
2022-12-12T11:52:55.496Z,-0.49
2022-12-12T11:55:36.926Z,-0.47
2022-12-12T11:58:18.359Z,-0.49
2022-12-12T12:00:52.000Z,-0.50
2022-12-12T12:03:33.186Z,-0.44
2022-12-12T12:06:26.826Z,-0.43
2022-12-12T12:09:13.295Z,-0.31
2022-12-12T12:11:51.706Z,-0.30
2022-12-12T12:14:35.951Z,-0.12
2022-12-12T12:17:13.151Z,-0.07
2022-12-12T12:19:48.742Z,-0.04
2022-12-12T12:22:28.014Z,-0.12
2022-12-12T12:25:25.829Z,-0.04
2022-12-12T12:28:20.277Z,-0.05
2022-12-12T12:30:59.815Z,-0.03
2022-12-12T12:33:47.338Z,0.02
2022-12-12T12:36:23.117Z,0.02
2022-12-12T12:39:06.037Z,0.02
2022-12-12T12:41:51.925Z,0.07
2022-12-12T12:44:42.154Z,0.08
2022-12-12T12:47:25.093Z,0.05
2022-12-12T12:49:59.308Z,0.11
2022-12-12T12:52:34.815Z,0.18
2022-12-12T12:55:05.955Z,0.14
2022-12-12T12:57:41.168Z,0.06
2022-12-12T13:00:17.698Z,0.08
2022-12-12T13:02:55.997Z,0.08
2022-12-12T13:05:33.706Z,0.08
2022-12-12T13:08:14.825Z,0.16
2022-12-12T13:10:49.176Z,0.09
2022-12-12T13:13:25.907Z,-0.10
2022-12-12T13:15:58.378Z,-0.08
2022-12-12T13:18:45.146Z,-0.13
2022-12-12T13:21:24.491Z,0.06
2022-12-12T13:24:01.114Z,0.02
2022-12-12T13:26:40.159Z,0.04
2022-12-12T13:29:32.106Z,0.07
2022-12-12T13:32:37.557Z,0.11
2022-12-12T13:35:11.573Z,0.13
2022-12-12T13:37:47.385Z,0.20
2022-12-12T13:40:36.771Z,0.22
2022-12-12T13:43:09.920Z,0.19
2022-12-12T13:45:45.436Z,0.20
2022-12-12T13:48:55.725Z,0.24
2022-12-12T13:51:36.028Z,0.24
2022-12-12T13:54:53.409Z,0.30
2022-12-12T13:57:30.124Z,0.25
2022-12-12T14:00:22.436Z,0.28
2022-12-12T14:03:02.756Z,0.22
2022-12-12T14:05:36.162Z,0.29
2022-12-12T14:08:24.340Z,0.42
2022-12-12T14:10:57.832Z,0.49
2022-12-12T14:13:43.540Z,0.58
2022-12-12T14:16:23.997Z,0.52
2022-12-12T14:19:06.770Z,0.46
2022-12-12T14:21:43.043Z,0.45
2022-12-12T14:24:55.012Z,0.44
2022-12-12T14:27:56.730Z,0.46
2022-12-12T14:30:30.850Z,0.41
2022-12-12T14:33:11.052Z,0.36
2022-12-12T14:35:53.075Z,0.33
2022-12-12T14:38:32.908Z,0.36
2022-12-12T14:41:11.622Z,0.40
2022-12-12T14:43:49.026Z,0.43
2022-12-12T14:46:44.224Z,0.46
2022-12-12T14:49:17.060Z,0.44
2022-12-12T14:51:52.518Z,0.34
2022-12-12T14:54:24.175Z,0.29
2022-12-12T14:56:55.947Z,0.29
2022-12-12T14:59:31.462Z,0.37
2022-12-12T15:02:03.474Z,0.34
2022-12-12T15:04:34.509Z,0.34
2022-12-12T15:07:06.483Z,0.34
2022-12-12T15:09:37.022Z,0.34
2022-12-12T15:12:16.515Z,0.33
2022-12-12T15:14:56.386Z,0.34
2022-12-12T15:17:32.851Z,0.34
2022-12-12T15:20:04.796Z,0.33
2022-12-12T15:22:37.727Z,0.30
2022-12-12T15:25:17.951Z,0.23
2022-12-12T15:27:55.300Z,0.15
2022-12-12T15:30:33.869Z,0.05
2022-12-12T15:33:03.771Z,0.07
2022-12-12T15:35:34.512Z,0.11
2022-12-12T15:38:07.200Z,0.09
2022-12-12T15:40:37.968Z,0.08
2022-12-12T15:43:09.347Z,0.10
2022-12-12T15:45:41.039Z,0.07
2022-12-12T15:48:17.226Z,0.05
2022-12-12T15:50:59.123Z,0.03
2022-12-12T15:53:34.584Z,0.01
2022-12-12T15:56:05.906Z,0.01
2022-12-12T15:58:39.119Z,0.01
2022-12-12T16:01:21.386Z,0.05
2022-12-12T16:04:00.173Z,0.03
2022-12-12T16:06:31.873Z,0.05
2022-12-12T16:09:18.865Z,-0.05
2022-12-12T16:11:48.972Z,-0.10
2022-12-12T16:14:39.616Z,-0.06
2022-12-12T16:17:13.996Z,-0.03
2022-12-12T16:19:46.207Z,-0.02
2022-12-12T16:22:34.662Z,-0.02
2022-12-12T16:25:19.423Z,-0.05
2022-12-12T16:27:52.698Z,-0.09
2022-12-12T16:30:21.982Z,-0.13
2022-12-12T16:32:50.995Z,-0.13
2022-12-12T16:35:22.173Z,-0.14
2022-12-12T16:37:53.130Z,-0.15
2022-12-12T16:40:24.450Z,-0.17
2022-12-12T16:42:56.802Z,-0.18
2022-12-12T16:45:25.577Z,-0.19
2022-12-12T16:47:54.313Z,-0.20
2022-12-12T16:50:23.966Z,-0.23
2022-12-12T16:52:52.689Z,-0.29
2022-12-12T16:55:25.348Z,-0.34
2022-12-12T16:57:54.283Z,-0.34
2022-12-12T17:00:23.556Z,-0.39
2022-12-12T17:02:52.099Z,-0.38
2022-12-12T17:05:24.277Z,-0.41
2022-12-12T17:07:54.085Z,-0.41
2022-12-12T17:10:29.700Z,-0.36
2022-12-12T17:12:58.270Z,-0.30
2022-12-12T17:15:30.101Z,-0.31
2022-12-12T17:18:00.230Z,-0.31
2022-12-12T17:20:37.511Z,-0.32
2022-12-12T17:23:28.945Z,-0.31
2022-12-12T17:26:03.996Z,-0.35
2022-12-12T17:32:13.528Z,-0.37
2022-12-12T17:34:55.710Z,-0.38
2022-12-12T17:37:29.850Z,-0.37
2022-12-12T17:40:09.618Z,-0.32
2022-12-12T17:46:20.293Z,-0.26
2022-12-12T17:52:37.886Z,-0.21
2022-12-12T17:55:53.188Z,-0.17
2022-12-12T17:58:27.970Z,-0.12
2022-12-12T18:01:11.785Z,-0.09
2022-12-12T18:03:49.954Z,-0.11
2022-12-12T18:06:21.639Z,-0.12
2022-12-12T18:08:50.816Z,-0.09
2022-12-12T18:11:21.640Z,-0.08
2022-12-12T18:13:50.551Z,-0.10
2022-12-12T18:16:20.578Z,-0.06
2022-12-12T18:18:52.940Z,-0.05
2022-12-12T18:24:14.739Z,-0.07
2022-12-12T18:26:44.542Z,-0.06
2022-12-12T18:29:15.023Z,-0.02
2022-12-12T18:31:44.333Z,-0.01
2022-12-12T18:34:14.558Z,-0.04
2022-12-12T18:36:43.449Z,-0.06
2022-12-12T18:39:19.461Z,-0.05
2022-12-12T18:41:56.285Z,-0.05
2022-12-12T18:44:39.359Z,-0.08
2022-12-12T18:47:16.037Z,-0.07
2022-12-12T18:49:46.168Z,-0.11
2022-12-12T18:52:35.067Z,-0.12
2022-12-12T18:55:08.683Z,-0.15
2022-12-12T18:57:40.191Z,-0.16
2022-12-12T19:00:11.563Z,-0.17
2022-12-12T19:03:08.939Z,-0.20
2022-12-12T19:05:44.259Z,-0.19
2022-12-12T19:08:13.245Z,-0.19
2022-12-12T19:11:14.695Z,-0.22
2022-12-12T19:14:12.573Z,-0.26
2022-12-12T19:16:42.838Z,-0.33
2022-12-12T19:19:15.547Z,-0.38
2022-12-12T19:22:39.722Z,-0.48
2022-12-12T19:25:04.911Z,-0.50
2022-12-12T19:27:36.393Z,-0.53
2022-12-12T19:30:14.745Z,-0.57
2022-12-12T19:36:26.794Z,-0.65
2022-12-12T19:39:03.274Z,-0.71
2022-12-12T19:41:37.111Z,-0.76
2022-12-12T19:44:48.820Z,-0.74
2022-12-12T19:47:59.615Z,-0.80
2022-12-12T19:50:46.508Z,-0.87
2022-12-12T19:53:50.171Z,-0.96
2022-12-12T20:00:01.037Z,-0.94
2022-12-12T20:02:46.031Z,-0.99
2022-12-12T20:05:53.526Z,-0.94
2022-12-12T20:08:48.401Z,-0.95
2022-12-12T20:11:30.814Z,-0.89
2022-12-12T20:14:03.654Z,-0.92
2022-12-12T20:16:42.917Z,-0.97
2022-12-12T20:19:33.493Z,-1.00
2022-12-12T20:22:55.071Z,-1.03
2022-12-12T20:25:43.575Z,-0.96
2022-12-12T20:29:02.553Z,-0.95
2022-12-12T20:35:13.975Z,-0.93
2022-12-12T20:37:56.147Z,-0.94
2022-12-12T20:40:44.510Z,-0.94
2022-12-12T20:43:15.145Z,-0.91
2022-12-12T20:45:48.244Z,-0.91
2022-12-12T20:48:26.488Z,-0.93
2022-12-12T20:51:57.991Z,-0.97
2022-12-12T20:55:15.905Z,-0.98
2022-12-12T20:58:05.146Z,-1.05
2022-12-12T21:00:36.175Z,-1.10
2022-12-12T21:03:08.276Z,-1.16
2022-12-12T21:09:23.893Z,-1.15
2022-12-12T21:12:17.585Z,-1.17
2022-12-12T21:15:14.979Z,-1.10
2022-12-12T21:18:22.607Z,-1.10
2022-12-12T21:24:33.641Z,-1.00
2022-12-12T21:27:43.955Z,-0.98
2022-12-12T21:30:15.851Z,-0.95
2022-12-12T21:32:51.424Z,-0.95
2022-12-12T21:35:20.705Z,-0.95
2022-12-12T21:38:26.250Z,-0.94
2022-12-12T21:44:41.249Z,-0.94
2022-12-12T21:50:55.845Z,-0.99
2022-12-12T21:57:09.538Z,-1.12
2022-12-12T22:07:42.019Z,-1.21
2022-12-12T22:13:55.021Z,-1.38
2022-12-12T22:17:13.520Z,-1.42
2022-12-12T22:23:36.565Z,-1.33
2022-12-12T22:29:45.933Z,-1.25
2022-12-12T22:36:01.754Z,-1.37
2022-12-12T22:42:16.679Z,-1.33
2022-12-12T22:48:30.747Z,-1.40
2022-12-12T22:54:47.898Z,-1.25
2022-12-12T23:01:49.847Z,-1.21
2022-12-12T23:23:04.704Z,-1.21
2022-12-12T23:29:42.624Z,-1.30
2022-12-12T23:36:02.891Z,-1.38
2022-12-12T23:42:12.688Z,-1.55
2022-12-12T23:48:38.633Z,-1.63
2022-12-12T23:54:50.440Z,-1.76
